createdAt,value
2019-04-14T00:01:19.399Z,3.90
2019-04-14T00:03:50.070Z,4.40
2019-04-14T00:06:20.218Z,3.43
2019-04-14T00:08:50.062Z,4.10
2019-04-14T00:11:19.095Z,5.07
2019-04-14T00:13:47.940Z,4.60
2019-04-14T00:16:16.440Z,3.40
2019-04-14T00:18:45.072Z,3.67
2019-04-14T00:21:13.548Z,3.70
2019-04-14T00:23:42.037Z,4.70
2019-04-14T00:26:29.349Z,4.47
2019-04-14T00:28:58.420Z,4.03
2019-04-14T00:31:28.551Z,3.60
2019-04-14T00:33:58.804Z,4.13
2019-04-14T00:36:41.615Z,3.57
2019-04-14T00:39:21.083Z,3.60
2019-04-14T00:42:08.266Z,4.47
2019-04-14T00:44:45.233Z,3.73
2019-04-14T00:47:31.571Z,4.03
2019-04-14T00:50:00.051Z,5.57
2019-04-14T00:52:29.698Z,3.90
2019-04-14T00:54:58.725Z,3.53
2019-04-14T00:57:27.247Z,4.20
2019-04-14T00:59:55.710Z,4.13
2019-04-14T01:02:25.120Z,4.20
2019-04-14T01:04:53.760Z,3.83
2019-04-14T01:07:22.193Z,3.70
2019-04-14T01:09:51.028Z,3.42
2019-04-14T01:12:19.628Z,3.93
2019-04-14T01:14:48.061Z,5.20
2019-04-14T01:17:17.627Z,3.50
2019-04-14T01:19:46.254Z,4.73
2019-04-14T01:22:14.691Z,4.20
2019-04-14T01:24:43.093Z,4.03
2019-04-14T01:27:12.485Z,3.73
2019-04-14T01:29:40.941Z,4.47
2019-04-14T01:32:09.357Z,4.97
2019-04-14T01:34:39.053Z,4.60
2019-04-14T01:37:07.600Z,4.70
2019-04-14T01:39:37.090Z,3.90
2019-04-14T01:42:07.008Z,3.40
2019-04-14T01:44:35.504Z,4.00
2019-04-14T01:47:05.161Z,3.90
2019-04-14T01:49:33.735Z,4.37
2019-04-14T01:52:06.766Z,4.53
2019-04-14T01:54:36.872Z,3.90
2019-04-14T01:57:11.021Z,4.30
2019-04-14T01:59:39.724Z,4.00
2019-04-14T02:02:09.765Z,3.87
2019-04-14T02:04:38.206Z,4.03
2019-04-14T02:07:08.039Z,4.10
2019-04-14T02:09:37.828Z,4.00
2019-04-14T02:12:06.354Z,5.20
2019-04-14T02:14:34.772Z,4.07
2019-04-14T02:17:04.928Z,4.33
2019-04-14T02:19:33.440Z,4.03
2019-04-14T02:22:02.730Z,3.77
2019-04-14T02:24:32.982Z,4.70
2019-04-14T02:27:01.416Z,4.23
2019-04-14T02:29:29.885Z,4.20
2019-04-14T02:32:25.830Z,4.30
2019-04-14T02:35:16.622Z,3.73
2019-04-14T02:40:13.695Z,4.30
2019-04-14T02:42:34.263Z,3.67
2019-04-14T02:45:00.671Z,3.90
2019-04-14T02:47:45.433Z,4.40
2019-04-14T02:50:01.766Z,5.07
2019-04-14T02:52:29.937Z,4.07
2019-04-14T02:57:23.107Z,3.87
2019-04-14T02:59:59.242Z,3.93
2019-04-14T03:02:30.331Z,4.90
2019-04-14T03:04:56.613Z,4.20
2019-04-14T03:09:56.249Z,4.43
2019-04-14T03:17:29.245Z,5.50
2019-04-14T03:20:22.804Z,4.03
2019-04-14T03:22:37.118Z,4.00
2019-04-14T03:25:09.802Z,4.50
2019-04-14T03:27:55.086Z,4.73
2019-04-14T03:36:06.548Z,4.33
2019-04-14T03:38:04.436Z,3.93
2019-04-14T03:40:49.191Z,3.90
2019-04-14T03:43:05.913Z,4.10
2019-04-14T03:45:36.317Z,4.40
2019-04-14T03:48:20.852Z,4.37
2019-04-14T03:50:28.905Z,5.13
2019-04-14T03:53:05.873Z,4.20
2019-04-14T03:55:15.986Z,4.23
2019-04-14T03:57:34.452Z,4.37
2019-04-14T04:00:03.303Z,4.27
2019-04-14T04:02:31.651Z,4.40
2019-04-14T04:05:00.076Z,4.43
2019-04-14T04:07:28.512Z,5.17
2019-04-14T04:09:58.584Z,4.47
2019-04-14T04:12:27.207Z,4.97
2019-04-14T04:14:55.798Z,3.80
2019-04-14T04:17:36.206Z,5.10
2019-04-14T04:20:24.229Z,4.77
2019-04-14T04:23:03.532Z,5.80
2019-04-14T04:25:36.441Z,4.70
2019-04-14T04:28:23.106Z,5.80
2019-04-14T04:30:53.695Z,4.67
2019-04-14T04:33:26.814Z,4.43
2019-04-14T04:36:03.243Z,4.63
2019-04-14T04:38:33.518Z,5.63
2019-04-14T04:41:01.960Z,4.27
2019-04-14T04:43:30.417Z,4.50
2019-04-14T04:45:58.821Z,4.17
2019-04-14T04:48:28.460Z,4.93
2019-04-14T04:50:57.016Z,4.47
2019-04-14T04:53:26.584Z,4.50
2019-04-14T04:55:55.246Z,4.90
2019-04-14T04:58:24.125Z,5.10
2019-04-14T05:00:54.228Z,5.07
2019-04-14T05:03:23.357Z,5.23
2019-04-14T05:06:28.796Z,4.50
2019-04-14T05:09:08.002Z,5.40
2019-04-14T05:11:55.438Z,5.03
2019-04-14T05:14:32.644Z,4.80
2019-04-14T05:17:01.452Z,4.37
2019-04-14T05:19:33.640Z,4.53
2019-04-14T05:22:00.635Z,4.90
2019-04-14T05:24:29.136Z,5.23
2019-04-14T05:26:57.527Z,5.07
2019-04-14T05:29:25.976Z,4.67
2019-04-14T05:31:55.432Z,5.07
2019-04-14T05:34:24.025Z,5.70
2019-04-14T05:36:52.422Z,5.10
2019-04-14T05:39:22.003Z,4.97
2019-04-14T05:42:00.499Z,5.17
2019-04-14T05:44:20.837Z,4.73
2019-04-14T05:46:49.333Z,5.37
2019-04-14T05:49:28.615Z,6.43
2019-04-14T05:51:48.160Z,5.70
2019-04-14T05:54:16.597Z,5.63
2019-04-14T05:56:45.039Z,4.97
2019-04-14T05:59:13.534Z,5.83
2019-04-14T06:01:42.133Z,4.40
2019-04-14T06:04:11.402Z,4.63
2019-04-14T06:06:39.921Z,5.47
2019-04-14T06:09:08.778Z,5.57
2019-04-14T06:11:37.217Z,5.03
2019-04-14T06:14:06.139Z,5.23
2019-04-14T06:16:34.549Z,5.80
2019-04-14T06:19:02.964Z,4.97
2019-04-14T06:21:31.407Z,5.43
2019-04-14T06:24:00.273Z,5.25
2019-04-14T06:26:28.743Z,5.23
2019-04-14T06:28:57.119Z,4.70
2019-04-14T06:31:43.381Z,5.80
2019-04-14T06:34:29.931Z,6.53
2019-04-14T06:37:00.011Z,5.07
2019-04-14T06:39:30.073Z,5.70
2019-04-14T06:41:58.487Z,5.10
2019-04-14T06:44:26.927Z,5.23
2019-04-14T06:46:55.353Z,4.93
2019-04-14T06:49:23.836Z,5.23
2019-04-14T06:51:52.269Z,5.30
2019-04-14T06:54:20.811Z,6.67
2019-04-14T06:56:49.244Z,5.37
2019-04-14T06:59:17.650Z,5.67
2019-04-14T07:01:46.080Z,5.83
2019-04-14T07:04:14.480Z,5.70
2019-04-14T07:06:42.971Z,5.73
2019-04-14T07:09:11.357Z,4.77
2019-04-14T07:11:39.806Z,4.27
2019-04-14T07:14:08.214Z,5.57
2019-04-14T07:16:36.641Z,5.43
2019-04-14T07:19:05.063Z,5.70
2019-04-14T07:21:33.496Z,5.07
2019-04-14T07:24:01.905Z,5.27
2019-04-14T07:26:30.335Z,5.13
2019-04-14T07:28:58.765Z,5.17
2019-04-14T07:31:28.843Z,7.47
2019-04-14T07:33:58.923Z,5.63
2019-04-14T07:36:45.537Z,6.30
2019-04-14T07:39:31.861Z,5.23
2019-04-14T07:42:07.909Z,4.53
2019-04-14T07:44:37.953Z,5.15
2019-04-14T07:47:13.979Z,5.47
2019-04-14T07:49:44.037Z,6.15
2019-04-14T07:52:23.123Z,6.97
2019-04-14T07:54:53.215Z,5.35
2019-04-14T07:57:31.742Z,5.83
2019-04-14T08:00:19.847Z,5.55
2019-04-14T08:02:52.627Z,6.30
2019-04-14T08:05:22.700Z,4.85
2019-04-14T08:07:51.177Z,6.30
2019-04-14T08:10:19.607Z,5.00
2019-04-14T08:12:48.056Z,5.78
2019-04-14T08:15:16.570Z,5.08
2019-04-14T08:17:44.983Z,5.75
2019-04-14T08:20:13.562Z,6.13
2019-04-14T08:22:41.973Z,5.15
2019-04-14T08:25:10.451Z,5.33
2019-04-14T08:27:38.985Z,5.87
2019-04-14T08:30:08.536Z,5.25
2019-04-14T08:32:36.975Z,5.83
2019-04-14T08:35:06.751Z,6.05
2019-04-14T08:37:35.291Z,5.65
2019-04-14T08:40:04.340Z,6.33
2019-04-14T08:42:49.392Z,5.35
2019-04-14T08:45:28.321Z,5.53
2019-04-14T08:48:16.551Z,6.12
2019-04-14T08:50:46.545Z,5.80
2019-04-14T08:53:22.273Z,6.25
2019-04-14T08:55:52.327Z,6.00
2019-04-14T08:58:37.452Z,5.55
2019-04-14T09:01:07.518Z,6.15
2019-04-14T09:03:49.635Z,6.10
2019-04-14T09:06:19.902Z,5.10
2019-04-14T09:08:49.989Z,6.15
2019-04-14T09:11:36.141Z,5.03
2019-04-14T09:14:04.650Z,6.70
2019-04-14T09:16:33.092Z,5.87
2019-04-14T09:19:07.610Z,5.78
2019-04-14T09:21:31.673Z,7.15
2019-04-14T09:24:00.093Z,6.08
2019-04-14T09:26:28.534Z,6.12
2019-04-14T09:28:56.979Z,6.50
2019-04-14T09:31:25.415Z,5.83
2019-04-14T09:33:53.928Z,5.25
2019-04-14T09:36:22.366Z,5.85
2019-04-14T09:38:50.794Z,5.83
2019-04-14T09:41:19.229Z,5.42
2019-04-14T09:43:47.656Z,6.65
2019-04-14T09:46:16.121Z,5.60
2019-04-14T09:48:44.530Z,4.90
2019-04-14T09:51:12.997Z,5.12
2019-04-14T09:53:41.444Z,5.75
2019-04-14T09:56:09.878Z,5.30
2019-04-14T09:58:38.391Z,5.37
2019-04-14T10:01:09.053Z,5.58
2019-04-14T10:03:36.952Z,5.15
2019-04-14T10:06:05.373Z,5.85
2019-04-14T10:08:33.806Z,5.12
2019-04-14T10:11:02.227Z,5.20
2019-04-14T10:13:30.668Z,5.17
2019-04-14T10:15:59.078Z,5.65
2019-04-14T10:18:27.506Z,5.10
2019-04-14T10:20:55.972Z,5.37
2019-04-14T10:23:24.401Z,4.90
2019-04-14T10:25:52.822Z,5.95
2019-04-14T10:28:21.229Z,5.40
2019-04-14T10:30:49.657Z,5.75
2019-04-14T10:33:18.146Z,6.17
2019-04-14T10:35:46.668Z,5.62
2019-04-14T10:38:15.068Z,4.75
2019-04-14T10:40:43.482Z,6.62
2019-04-14T10:43:11.919Z,5.75
2019-04-14T10:45:40.333Z,5.10
2019-04-14T10:48:08.752Z,5.35
2019-04-14T10:50:37.204Z,5.95
2019-04-14T10:53:05.636Z,6.12
2019-04-14T10:55:34.086Z,5.20
2019-04-14T10:58:02.524Z,4.95
2019-04-14T11:00:30.950Z,5.17
2019-04-14T11:02:59.414Z,5.60
2019-04-14T11:05:29.466Z,5.20
2019-04-14T11:07:57.900Z,4.83
2019-04-14T11:10:26.347Z,5.78
2019-04-14T11:12:54.804Z,6.47
2019-04-14T11:15:23.234Z,5.67
2019-04-14T11:17:51.715Z,6.00
2019-04-14T11:20:20.158Z,5.30
2019-04-14T11:22:48.582Z,5.15
2019-04-14T11:25:17.042Z,5.53
2019-04-14T11:27:45.468Z,5.20
2019-04-14T11:30:15.614Z,5.03
2019-04-14T11:32:48.665Z,6.95
2019-04-14T11:35:27.496Z,5.42
2019-04-14T11:38:15.836Z,5.30
2019-04-14T11:40:45.915Z,5.05
2019-04-14T11:43:14.386Z,5.05
2019-04-14T11:45:42.822Z,5.55
2019-04-14T11:48:11.310Z,5.47
2019-04-14T11:50:39.734Z,5.10
2019-04-14T11:53:08.221Z,5.25
2019-04-14T11:55:36.727Z,5.90
2019-04-14T11:58:05.201Z,7.28
2019-04-14T12:00:53.338Z,5.83
2019-04-14T12:03:23.378Z,5.80
2019-04-14T12:06:11.755Z,5.47
2019-04-14T12:08:47.248Z,4.60
2019-04-14T12:11:15.691Z,6.20
2019-04-14T12:13:44.109Z,5.45
2019-04-14T12:16:12.589Z,5.35
2019-04-14T12:18:41.009Z,5.40
2019-04-14T12:21:09.524Z,4.70
2019-04-14T12:23:38.045Z,5.03
2019-04-14T12:26:06.465Z,5.80
2019-04-14T12:28:36.019Z,5.55
2019-04-14T12:31:06.520Z,7.15
2019-04-14T12:33:35.948Z,6.20
2019-04-14T12:36:07.741Z,6.00
2019-04-14T12:38:36.315Z,5.40
2019-04-14T12:41:06.466Z,5.92
2019-04-14T12:43:42.526Z,6.15
2019-04-14T12:46:18.539Z,5.35
2019-04-14T12:48:51.029Z,4.83
2019-04-14T12:51:32.713Z,4.90
2019-04-14T12:54:01.132Z,7.80
2019-04-14T12:56:30.016Z,5.47
2019-04-14T12:59:00.183Z,5.85
2019-04-14T13:01:30.240Z,5.35
2019-04-14T13:03:58.715Z,5.17
2019-04-14T13:06:27.153Z,5.20
2019-04-14T13:08:55.571Z,5.10
2019-04-14T13:11:24.011Z,6.67
2019-04-14T13:13:52.421Z,4.97
2019-04-14T13:16:20.851Z,5.08
2019-04-14T13:18:49.272Z,5.08
2019-04-14T13:21:17.699Z,5.75
2019-04-14T13:23:46.131Z,6.25
2019-04-14T13:26:14.575Z,6.37
2019-04-14T13:28:43.001Z,5.53
2019-04-14T13:31:11.451Z,4.83
2019-04-14T13:33:39.904Z,4.97
2019-04-14T13:36:08.346Z,5.00
2019-04-14T13:38:36.748Z,5.00
2019-04-14T13:41:05.629Z,5.47
2019-04-14T13:43:34.061Z,6.28
2019-04-14T13:46:02.489Z,4.90
2019-04-14T13:48:30.926Z,6.33
2019-04-14T13:50:59.329Z,4.72
2019-04-14T13:53:27.768Z,5.75
2019-04-14T13:55:56.191Z,5.85
2019-04-14T13:58:24.640Z,4.55
2019-04-14T14:00:53.075Z,4.87
2019-04-14T14:03:21.597Z,5.30
2019-04-14T14:05:50.027Z,4.53
2019-04-14T14:08:18.447Z,5.12
2019-04-14T14:10:46.879Z,6.28
2019-04-14T14:13:22.803Z,4.15
2019-04-14T14:15:55.101Z,4.80
2019-04-14T14:18:27.599Z,5.30
2019-04-14T14:20:57.657Z,5.03
2019-04-14T14:23:46.296Z,4.95
2019-04-14T14:26:16.364Z,5.20
2019-04-14T14:28:44.785Z,4.97
2019-04-14T14:31:13.220Z,4.83
2019-04-14T14:33:41.637Z,5.28
2019-04-14T14:36:10.084Z,5.87
2019-04-14T14:38:38.487Z,4.83
2019-04-14T14:41:09.235Z,4.87
2019-04-14T14:43:37.679Z,5.65
2019-04-14T14:46:10.290Z,6.30
2019-04-14T14:48:43.128Z,5.33
2019-04-14T14:51:16.143Z,5.65
2019-04-14T14:53:44.607Z,4.92
2019-04-14T14:56:13.068Z,5.12
2019-04-14T14:58:41.485Z,5.78
2019-04-14T15:01:09.996Z,4.80
2019-04-14T15:03:38.420Z,5.28
2019-04-14T15:06:06.949Z,4.35
2019-04-14T15:08:35.344Z,5.25
2019-04-14T15:11:04.475Z,6.65
2019-04-14T15:13:32.965Z,7.17
2019-04-14T15:16:01.535Z,4.92
2019-04-14T15:18:29.957Z,6.75
2019-04-14T15:20:58.391Z,6.50
2019-04-14T15:23:26.869Z,6.42
2019-04-14T15:25:55.304Z,5.12
2019-04-14T15:28:23.808Z,4.97
2019-04-14T15:30:52.250Z,5.12
2019-04-14T15:33:20.755Z,7.87
2019-04-14T15:35:49.185Z,5.83
2019-04-14T15:38:17.627Z,4.97
2019-04-14T15:40:46.071Z,5.72
2019-04-14T15:43:14.527Z,5.00
2019-04-14T15:45:42.941Z,5.92
2019-04-14T15:48:11.433Z,7.72
2019-04-14T15:50:39.845Z,6.00
2019-04-14T15:53:08.273Z,4.95
2019-04-14T15:55:36.676Z,5.87
2019-04-14T15:58:21.607Z,10.23
2019-04-14T16:00:51.675Z,5.12
2019-04-14T16:03:21.742Z,6.55
2019-04-14T16:05:57.886Z,5.28
2019-04-14T16:08:30.934Z,5.65
2019-04-14T16:11:03.845Z,8.05
2019-04-14T16:13:33.912Z,7.85
2019-04-14T16:16:15.721Z,6.17
2019-04-14T16:18:45.800Z,6.62
2019-04-14T16:21:14.499Z,5.35
2019-04-14T16:23:50.418Z,5.75
2019-04-14T16:26:14.715Z,5.92
2019-04-14T16:28:47.572Z,5.55
2019-04-14T16:31:33.736Z,6.40
2019-04-14T16:34:12.754Z,5.08
2019-04-14T16:36:42.893Z,5.72
2019-04-14T16:39:11.492Z,9.00
2019-04-14T16:41:39.978Z,5.60
2019-04-14T16:44:08.430Z,5.62
2019-04-14T16:46:36.865Z,6.17
2019-04-14T16:49:06.162Z,7.62
2019-04-14T16:51:41.934Z,5.28
2019-04-14T16:54:20.840Z,6.45
2019-04-14T16:56:50.921Z,6.20
2019-04-14T16:59:19.333Z,6.53
2019-04-14T17:01:47.819Z,6.65
2019-04-14T17:04:16.266Z,5.92
2019-04-14T17:06:44.704Z,7.00
2019-04-14T17:09:13.177Z,7.28
2019-04-14T17:11:41.614Z,6.20
2019-04-14T17:14:11.677Z,7.47
2019-04-14T17:16:41.853Z,5.95
2019-04-14T17:19:11.917Z,6.90
2019-04-14T17:21:42.061Z,6.00
2019-04-14T17:24:17.629Z,6.90
2019-04-14T17:26:47.705Z,5.78
2019-04-14T17:29:17.794Z,5.53
2019-04-14T17:31:48.385Z,5.08
2019-04-14T17:34:34.739Z,5.50
2019-04-14T17:37:22.900Z,7.87
2019-04-14T17:39:58.681Z,7.35
2019-04-14T17:42:31.435Z,5.87
2019-04-14T17:45:04.349Z,7.83
2019-04-14T17:47:40.416Z,7.72
2019-04-14T17:50:11.138Z,6.08
2019-04-14T17:52:47.152Z,5.90
2019-04-14T17:55:20.029Z,8.35
2019-04-14T17:57:55.818Z,6.62
2019-04-14T18:00:28.621Z,7.62
2019-04-14T18:03:01.669Z,7.53
2019-04-14T18:05:35.123Z,12.67
2019-04-14T18:08:07.885Z,9.20
2019-04-14T18:10:53.458Z,6.45
2019-04-14T18:13:23.639Z,5.45
2019-04-14T18:15:56.229Z,6.03
2019-04-14T18:18:29.301Z,6.13
2019-04-14T18:20:59.364Z,8.30
2019-04-14T18:23:27.840Z,6.90
2019-04-14T18:25:56.264Z,8.38
2019-04-14T18:28:29.125Z,6.50
2019-04-14T18:31:01.621Z,9.30
2019-04-14T18:33:47.677Z,11.22
2019-04-14T18:36:17.779Z,11.97
2019-04-14T18:38:56.807Z,8.10
2019-04-14T18:41:41.880Z,10.23
2019-04-14T18:44:11.975Z,8.73
2019-04-14T18:46:42.055Z,7.97
2019-04-14T18:49:12.191Z,9.60
2019-04-14T18:51:48.339Z,16.97
2019-04-14T18:54:33.392Z,7.93
2019-04-14T18:57:12.378Z,11.88
2019-04-14T18:59:57.468Z,13.05
2019-04-14T19:02:25.922Z,10.97
2019-04-14T19:04:54.328Z,7.70
2019-04-14T19:07:22.751Z,9.73
2019-04-14T19:09:51.201Z,8.90
2019-04-14T19:12:21.261Z,9.37
2019-04-14T19:14:54.006Z,8.00
2019-04-14T19:17:24.097Z,8.07
2019-04-14T19:20:01.534Z,9.03
2019-04-14T19:22:24.422Z,9.93
2019-04-14T19:24:52.870Z,8.70
2019-04-14T19:27:21.340Z,9.63
2019-04-14T19:29:49.792Z,8.53
2019-04-14T19:32:18.195Z,8.60
2019-04-14T19:34:46.641Z,6.93
2019-04-14T19:37:15.063Z,9.50
2019-04-14T19:39:43.504Z,8.53
2019-04-14T19:42:11.943Z,7.77
2019-04-14T19:44:40.384Z,8.83
2019-04-14T19:47:08.797Z,8.30
2019-04-14T19:49:37.227Z,8.63
2019-04-14T19:52:05.685Z,9.70
2019-04-14T19:54:34.134Z,10.03
2019-04-14T19:57:02.604Z,8.30
2019-04-14T19:59:31.101Z,7.00
2019-04-14T20:01:59.607Z,7.93
2019-04-14T20:04:28.023Z,8.43
2019-04-14T20:06:56.492Z,7.57
2019-04-14T20:09:25.032Z,7.67
2019-04-14T20:11:53.468Z,11.07
2019-04-14T20:14:21.905Z,5.73
2019-04-14T20:17:05.789Z,10.37
2019-04-14T20:19:35.328Z,7.23
2019-04-14T20:22:11.428Z,8.20
2019-04-14T20:24:43.974Z,9.43
2019-04-14T20:27:20.067Z,8.73
2019-04-14T20:29:53.141Z,9.07
2019-04-14T20:32:23.368Z,8.47
2019-04-14T20:34:51.787Z,10.20
2019-04-14T20:37:20.250Z,9.53
2019-04-14T20:39:48.771Z,7.43
2019-04-14T20:42:17.456Z,11.67
2019-04-14T20:44:45.881Z,8.47
2019-04-14T20:47:14.469Z,9.40
2019-04-14T20:49:42.892Z,11.83
2019-04-14T20:52:11.335Z,11.83
2019-04-14T20:54:39.805Z,10.23
2019-04-14T20:57:08.209Z,10.33
2019-04-14T20:59:36.660Z,9.53
2019-04-14T21:02:24.997Z,11.47
2019-04-14T21:04:58.043Z,10.80
2019-04-14T21:07:44.513Z,9.50
2019-04-14T21:10:14.736Z,9.73
2019-04-14T21:13:01.227Z,8.00
2019-04-14T21:15:33.999Z,8.93
2019-04-14T21:18:12.900Z,9.33
2019-04-14T21:20:58.883Z,12.43
2019-04-14T21:23:35.237Z,7.07
2019-04-14T21:26:05.386Z,8.87
2019-04-14T21:28:50.540Z,8.13
2019-04-14T21:31:26.171Z,7.40
2019-04-14T21:33:56.210Z,6.67
2019-04-14T21:36:26.359Z,8.07
2019-04-14T21:39:12.592Z,9.03
2019-04-14T21:41:42.697Z,11.40
2019-04-14T21:44:11.120Z,7.03
2019-04-14T21:46:39.556Z,7.67
2019-04-14T21:49:08.026Z,6.80
2019-04-14T21:51:53.065Z,7.00
2019-04-14T21:54:21.847Z,6.97
2019-04-14T21:56:51.928Z,7.40
2019-04-14T21:59:38.362Z,7.80
2019-04-14T22:02:25.019Z,6.43
2019-04-14T22:04:55.105Z,9.17
2019-04-14T22:07:30.741Z,9.90
2019-04-14T22:10:00.856Z,8.83
2019-04-14T22:12:30.417Z,7.17
2019-04-14T22:14:58.848Z,6.53
2019-04-14T22:17:27.270Z,7.03
2019-04-14T22:19:55.756Z,5.80
2019-04-14T22:22:24.106Z,6.10
2019-04-14T22:24:52.625Z,5.20
2019-04-14T22:27:21.154Z,6.83
2019-04-14T22:29:49.581Z,6.00
2019-04-14T22:32:18.041Z,5.80
2019-04-14T22:34:46.525Z,6.93
2019-04-14T22:37:15.051Z,5.03
2019-04-14T22:39:43.477Z,8.47
2019-04-14T22:42:11.912Z,7.40
2019-04-14T22:44:40.324Z,5.77
2019-04-14T22:47:08.727Z,7.17
2019-04-14T22:49:37.210Z,5.77
2019-04-14T22:52:05.886Z,5.27
2019-04-14T22:54:34.337Z,4.90
2019-04-14T22:57:02.831Z,5.13
2019-04-14T22:59:31.271Z,5.43
2019-04-14T23:02:06.953Z,7.30
2019-04-14T23:04:45.796Z,4.67
2019-04-14T23:07:15.855Z,5.13
2019-04-14T23:09:45.928Z,6.83
2019-04-14T23:12:27.765Z,6.20
2019-04-14T23:15:06.805Z,4.43
2019-04-14T23:17:36.899Z,5.33
2019-04-14T23:20:11.335Z,6.23
2019-04-14T23:22:41.407Z,4.97
2019-04-14T23:25:09.972Z,6.33
2019-04-14T23:27:38.438Z,4.77
2019-04-14T23:30:07.044Z,5.47
2019-04-14T23:32:35.460Z,4.23
2019-04-14T23:35:06.084Z,5.17
2019-04-14T23:37:34.479Z,5.23
2019-04-14T23:40:03.128Z,4.50
2019-04-14T23:42:31.539Z,4.83
2019-04-14T23:44:59.968Z,4.30
2019-04-14T23:47:28.445Z,4.63
2019-04-14T23:49:56.855Z,4.37
2019-04-14T23:52:25.272Z,4.33
2019-04-14T23:54:53.732Z,5.23
2019-04-14T23:57:22.153Z,6.10
2019-04-14T23:59:50.558Z,4.63
